createdAt,value
2023-03-04T00:01:22.390Z,4.70
2023-03-04T00:03:48.716Z,4.65
2023-03-04T00:06:14.974Z,4.81
2023-03-04T00:08:41.344Z,4.79
2023-03-04T00:11:07.679Z,4.77
2023-03-04T00:13:34.005Z,4.71
2023-03-04T00:16:00.298Z,4.73
2023-03-04T00:18:26.633Z,4.75
2023-03-04T00:20:52.948Z,4.79
2023-03-04T00:23:19.271Z,4.64
2023-03-04T00:25:45.527Z,4.79
2023-03-04T00:28:11.845Z,4.77
2023-03-04T00:30:38.097Z,4.75
2023-03-04T00:33:04.548Z,4.79
2023-03-04T00:35:30.948Z,4.78
2023-03-04T00:37:57.295Z,4.83
2023-03-04T00:40:23.517Z,4.83
2023-03-04T00:42:49.827Z,4.73
2023-03-04T00:45:16.089Z,4.77
2023-03-04T00:47:42.464Z,4.74
2023-03-04T00:50:09.651Z,4.68
2023-03-04T00:52:36.101Z,4.68
2023-03-04T00:55:02.430Z,4.75
2023-03-04T00:57:28.671Z,4.75
2023-03-04T00:59:55.068Z,4.76
2023-03-04T01:02:21.539Z,4.72
2023-03-04T01:04:47.937Z,4.81
2023-03-04T01:07:14.224Z,4.75
2023-03-04T01:09:40.665Z,4.67
2023-03-04T01:12:07.933Z,4.72
2023-03-04T01:14:34.348Z,4.73
2023-03-04T01:17:00.848Z,4.80
2023-03-04T01:19:27.314Z,4.69
2023-03-04T01:21:53.623Z,4.65
2023-03-04T01:24:19.897Z,4.71
2023-03-04T01:26:46.227Z,4.77
2023-03-04T01:29:12.787Z,4.68
2023-03-04T01:31:39.037Z,4.74
2023-03-04T01:34:05.364Z,4.68
2023-03-04T01:36:31.617Z,4.71
2023-03-04T01:38:57.949Z,4.77
2023-03-04T01:41:25.609Z,4.77
2023-03-04T01:43:52.368Z,4.79
2023-03-04T01:46:18.782Z,4.77
2023-03-04T01:48:45.202Z,4.69
2023-03-04T01:51:16.844Z,4.69
2023-03-04T01:53:44.845Z,4.70
2023-03-04T01:56:29.163Z,4.72
2023-03-04T01:59:10.692Z,4.74
2023-03-04T02:01:38.053Z,4.75
2023-03-04T02:04:04.900Z,4.66
2023-03-04T02:06:31.923Z,4.68
2023-03-04T02:08:58.444Z,4.68
2023-03-04T02:11:24.845Z,4.72
2023-03-04T02:13:52.532Z,4.77
2023-03-04T02:16:19.471Z,4.72
2023-03-04T02:18:45.969Z,4.62
2023-03-04T02:21:19.447Z,4.79
2023-03-04T02:24:04.060Z,4.76
2023-03-04T02:26:32.438Z,4.73
2023-03-04T02:29:00.050Z,4.77
2023-03-04T02:31:30.016Z,4.79
2023-03-04T02:33:59.317Z,4.76
2023-03-04T02:36:26.146Z,4.82
2023-03-04T02:38:54.414Z,4.80
2023-03-04T02:41:26.236Z,4.69
2023-03-04T02:43:54.501Z,4.78
2023-03-04T02:46:21.092Z,4.67
2023-03-04T02:48:47.454Z,4.65
2023-03-04T02:51:13.684Z,4.77
2023-03-04T02:53:39.986Z,4.73
2023-03-04T02:56:06.507Z,4.77
2023-03-04T02:58:33.010Z,4.69
2023-03-04T03:00:59.442Z,4.60
2023-03-04T03:03:26.052Z,4.71
2023-03-04T03:05:54.112Z,4.64
2023-03-04T03:08:20.828Z,4.68
2023-03-04T03:10:47.133Z,4.75
2023-03-04T03:13:13.405Z,4.84
2023-03-04T03:15:39.733Z,4.75
2023-03-04T03:18:06.039Z,4.78
2023-03-04T03:20:32.300Z,4.76
2023-03-04T03:22:58.659Z,4.72
2023-03-04T03:25:25.005Z,4.75
2023-03-04T03:27:51.253Z,4.76
2023-03-04T03:30:18.324Z,4.66
2023-03-04T03:32:44.708Z,4.65
2023-03-04T03:35:11.289Z,4.62
2023-03-04T03:37:37.632Z,4.69
2023-03-04T03:40:04.594Z,4.68
2023-03-04T03:42:30.986Z,4.61
2023-03-04T03:44:57.353Z,4.60
2023-03-04T03:47:23.830Z,4.56
2023-03-04T03:49:50.144Z,4.53
2023-03-04T03:52:16.408Z,4.58
2023-03-04T03:54:42.753Z,4.52
2023-03-04T03:57:09.118Z,4.55
2023-03-04T03:59:35.522Z,4.58
2023-03-04T04:02:01.939Z,4.54
2023-03-04T04:04:28.363Z,4.52
2023-03-04T04:06:54.629Z,4.55
2023-03-04T04:09:20.949Z,4.51
2023-03-04T04:11:47.198Z,4.56
2023-03-04T04:14:14.426Z,4.48
2023-03-04T04:16:41.367Z,4.52
2023-03-04T04:19:07.864Z,4.42
2023-03-04T04:21:34.163Z,4.49
2023-03-04T04:24:00.441Z,4.52
2023-03-04T04:26:26.808Z,4.46
2023-03-04T04:28:53.234Z,4.52
2023-03-04T04:31:19.623Z,4.58
2023-03-04T04:33:45.921Z,4.49
2023-03-04T04:36:15.352Z,4.62
2023-03-04T04:38:42.118Z,4.60
2023-03-04T04:41:19.746Z,4.57
2023-03-04T04:43:46.730Z,4.48
2023-03-04T04:46:13.624Z,4.58
2023-03-04T04:48:39.994Z,4.50
2023-03-04T04:51:06.244Z,4.58
2023-03-04T04:53:32.566Z,4.53
2023-03-04T04:55:58.782Z,4.59
2023-03-04T04:58:25.349Z,4.57
2023-03-04T05:00:51.833Z,4.67
2023-03-04T05:03:18.759Z,4.66
2023-03-04T05:05:45.202Z,4.59
2023-03-04T05:08:11.571Z,4.63
2023-03-04T05:10:37.874Z,4.66
2023-03-04T05:13:04.149Z,4.75
2023-03-04T05:15:30.586Z,4.76
2023-03-04T05:17:57.022Z,4.72
2023-03-04T05:20:23.368Z,4.80
2023-03-04T05:22:49.675Z,4.83
2023-03-04T05:25:15.961Z,4.88
2023-03-04T05:27:42.309Z,4.90
2023-03-04T05:30:09.471Z,4.92
2023-03-04T05:32:35.780Z,4.93
2023-03-04T05:35:02.059Z,4.93
2023-03-04T05:37:28.382Z,4.88
2023-03-04T05:39:54.631Z,4.93
2023-03-04T05:42:20.948Z,4.94
2023-03-04T05:44:47.203Z,4.94
2023-03-04T05:47:13.504Z,4.85
2023-03-04T05:49:39.737Z,4.94
2023-03-04T05:52:06.046Z,4.94
2023-03-04T05:54:32.291Z,4.92
2023-03-04T05:56:58.638Z,4.91
2023-03-04T05:59:25.069Z,4.88
2023-03-04T06:01:51.395Z,4.83
2023-03-04T06:04:17.623Z,4.86
2023-03-04T06:06:43.966Z,4.85
2023-03-04T06:09:10.256Z,4.88
2023-03-04T06:11:36.642Z,4.81
2023-03-04T06:14:03.488Z,4.77
2023-03-04T06:16:30.023Z,4.76
2023-03-04T06:18:56.524Z,4.83
2023-03-04T06:21:22.940Z,4.75
2023-03-04T06:23:49.355Z,4.74
2023-03-04T06:26:15.998Z,4.73
2023-03-04T06:28:43.139Z,4.77
2023-03-04T06:31:09.484Z,4.76
2023-03-04T06:33:35.962Z,4.82
2023-03-04T06:36:02.697Z,4.76
2023-03-04T06:38:29.071Z,4.76
2023-03-04T06:40:57.278Z,4.77
2023-03-04T06:43:23.960Z,4.85
2023-03-04T06:45:50.308Z,4.82
2023-03-04T06:48:16.575Z,4.90
2023-03-04T06:50:42.959Z,4.87
2023-03-04T06:53:09.233Z,4.94
2023-03-04T06:55:35.602Z,4.95
2023-03-04T06:58:01.927Z,5.00
2023-03-04T07:00:28.410Z,5.03
2023-03-04T07:02:55.302Z,5.09
2023-03-04T07:05:21.703Z,5.12
2023-03-04T07:07:48.075Z,5.06
2023-03-04T07:10:14.409Z,5.16
2023-03-04T07:12:40.646Z,5.29
2023-03-04T07:15:07.481Z,5.27
2023-03-04T07:17:33.814Z,5.39
2023-03-04T07:20:00.179Z,5.43
2023-03-04T07:22:26.557Z,5.47
2023-03-04T07:24:52.906Z,5.48
2023-03-04T07:27:19.301Z,5.57
2023-03-04T07:29:45.627Z,5.58
2023-03-04T07:32:12.057Z,5.58
2023-03-04T07:34:38.543Z,5.59
2023-03-04T07:37:04.888Z,5.58
2023-03-04T07:39:31.099Z,5.65
2023-03-04T07:41:57.470Z,5.61
2023-03-04T07:44:23.801Z,5.68
2023-03-04T07:46:50.144Z,5.63
2023-03-04T07:49:16.419Z,5.72
2023-03-04T07:51:42.759Z,5.82
2023-03-04T07:54:09.713Z,5.82
2023-03-04T07:56:36.124Z,5.88
2023-03-04T07:59:02.779Z,5.99
2023-03-04T08:01:35.430Z,6.14
2023-03-04T08:04:02.636Z,6.37
2023-03-04T08:06:29.655Z,6.45
2023-03-04T08:09:05.269Z,6.61
2023-03-04T08:11:32.773Z,6.69
2023-03-04T08:13:59.128Z,6.61
2023-03-04T08:16:26.020Z,6.65
2023-03-04T08:18:55.074Z,6.59
2023-03-04T08:21:22.872Z,6.70
2023-03-04T08:23:50.096Z,6.76
2023-03-04T08:26:28.765Z,6.80
2023-03-04T08:28:55.956Z,7.06
2023-03-04T08:31:22.731Z,7.27
2023-03-04T08:33:49.162Z,7.37
2023-03-04T08:36:16.201Z,7.53
2023-03-04T08:38:42.940Z,7.56
2023-03-04T08:41:09.384Z,7.46
2023-03-04T08:43:35.775Z,7.44
2023-03-04T08:46:02.652Z,7.11
2023-03-04T08:48:29.186Z,7.19
2023-03-04T08:50:55.656Z,7.21
2023-03-04T08:53:22.102Z,7.21
2023-03-04T08:55:50.352Z,7.12
2023-03-04T08:58:16.722Z,7.24
2023-03-04T09:00:45.123Z,7.40
2023-03-04T09:03:12.522Z,7.35
2023-03-04T09:05:39.153Z,7.50
2023-03-04T09:08:05.930Z,7.54
2023-03-04T09:10:32.315Z,7.76
2023-03-04T09:12:58.904Z,7.69
2023-03-04T09:15:25.246Z,7.91
2023-03-04T09:17:51.582Z,8.25
2023-03-04T09:20:18.025Z,8.66
2023-03-04T09:22:44.392Z,8.94
2023-03-04T09:25:14.289Z,9.19
2023-03-04T09:27:40.926Z,9.16
2023-03-04T09:30:08.998Z,9.28
2023-03-04T09:32:35.438Z,9.30
2023-03-04T09:35:01.940Z,8.84
2023-03-04T09:37:28.276Z,8.62
2023-03-04T09:39:54.641Z,8.45
2023-03-04T09:42:33.498Z,8.12
2023-03-04T09:45:00.474Z,7.69
2023-03-04T09:47:26.953Z,7.36
2023-03-04T09:50:04.080Z,7.31
2023-03-04T09:52:55.963Z,7.36
2023-03-04T09:55:34.710Z,7.50
2023-03-04T09:58:25.300Z,7.48
2023-03-04T10:01:01.883Z,7.27
2023-03-04T10:03:41.979Z,6.99
2023-03-04T10:06:13.054Z,6.73
2023-03-04T10:08:44.676Z,6.62
2023-03-04T10:11:16.304Z,6.72
2023-03-04T10:13:56.175Z,6.88
2023-03-04T10:16:29.217Z,7.19
2023-03-04T10:19:19.927Z,7.51
2023-03-04T10:21:48.995Z,7.47
2023-03-04T10:24:18.641Z,7.59
2023-03-04T10:26:49.336Z,7.61
2023-03-04T10:29:19.329Z,7.44
2023-03-04T10:31:46.322Z,7.37
2023-03-04T10:34:14.568Z,7.24
2023-03-04T10:36:54.526Z,7.12
2023-03-04T10:39:29.019Z,7.07
2023-03-04T10:42:05.246Z,6.95
2023-03-04T10:44:33.890Z,6.74
2023-03-04T10:47:00.917Z,6.73
2023-03-04T10:49:29.230Z,6.73
2023-03-04T10:52:03.280Z,6.67
2023-03-04T10:54:48.719Z,6.63
2023-03-04T10:57:20.045Z,6.66
2023-03-04T10:59:50.532Z,6.81
2023-03-04T11:02:26.389Z,7.01
2023-03-04T11:05:07.846Z,7.17
2023-03-04T11:07:54.037Z,7.19
2023-03-04T11:10:25.385Z,7.24
2023-03-04T11:13:07.322Z,7.16
2023-03-04T11:15:58.614Z,6.89
2023-03-04T11:18:47.842Z,6.77
2023-03-04T11:21:19.515Z,6.73
2023-03-04T11:23:51.262Z,6.67
2023-03-04T11:26:26.730Z,6.88
2023-03-04T11:29:02.082Z,6.93
2023-03-04T11:31:35.166Z,7.08
2023-03-04T11:34:08.633Z,7.07
2023-03-04T11:36:49.906Z,6.75
2023-03-04T11:39:31.415Z,6.53
2023-03-04T11:42:04.845Z,6.44
2023-03-04T11:44:31.288Z,6.33
2023-03-04T11:47:15.282Z,6.37
2023-03-04T11:49:59.916Z,6.46
2023-03-04T11:52:57.541Z,6.50
2023-03-04T11:55:36.613Z,6.49
2023-03-04T11:58:11.529Z,6.64
2023-03-04T12:00:46.242Z,6.82
2023-03-04T12:03:51.266Z,6.85
2023-03-04T12:06:59.075Z,6.94
2023-03-04T12:09:37.240Z,7.06
2023-03-04T12:12:26.761Z,7.05
2023-03-04T12:15:27.624Z,6.95
2023-03-04T12:18:13.968Z,6.63
2023-03-04T12:21:04.703Z,6.76
2023-03-04T12:23:46.188Z,6.64
2023-03-04T12:26:44.846Z,6.72
2023-03-04T12:29:20.407Z,6.85
2023-03-04T12:31:51.492Z,6.91
2023-03-04T12:34:54.144Z,7.13
2023-03-04T12:38:01.686Z,7.26
2023-03-04T12:40:41.275Z,7.31
2023-03-04T12:43:30.499Z,7.28
2023-03-04T12:46:02.922Z,7.24
2023-03-04T12:48:29.288Z,7.34
2023-03-04T12:51:11.381Z,7.34
2023-03-04T12:53:42.951Z,7.36
2023-03-04T12:56:22.436Z,7.41
2023-03-04T12:58:49.674Z,7.31
2023-03-04T13:01:24.080Z,7.19
2023-03-04T13:04:15.663Z,7.26
2023-03-04T13:06:53.462Z,7.53
2023-03-04T13:09:26.545Z,7.66
2023-03-04T13:11:54.853Z,7.86
2023-03-04T13:14:21.188Z,7.89
2023-03-04T13:16:51.606Z,7.73
2023-03-04T13:19:36.704Z,7.72
2023-03-04T13:22:03.068Z,7.61
2023-03-04T13:24:57.277Z,7.45
2023-03-04T13:27:49.588Z,7.32
2023-03-04T13:30:31.205Z,7.06
2023-03-04T13:32:59.117Z,6.86
2023-03-04T13:35:47.038Z,6.90
2023-03-04T13:38:27.201Z,6.77
2023-03-04T13:41:05.823Z,6.89
2023-03-04T13:43:39.232Z,6.95
2023-03-04T13:46:21.080Z,7.10
2023-03-04T13:48:50.211Z,7.18
2023-03-04T13:51:30.639Z,7.17
2023-03-04T13:54:00.142Z,7.44
2023-03-04T13:56:26.583Z,7.52
2023-03-04T13:59:05.035Z,7.57
2023-03-04T14:01:53.687Z,7.46
2023-03-04T14:04:23.153Z,7.48
2023-03-04T14:06:51.542Z,7.42
2023-03-04T14:09:29.645Z,7.45
2023-03-04T14:12:14.366Z,7.23
2023-03-04T14:14:47.625Z,7.23
2023-03-04T14:17:20.930Z,7.13
2023-03-04T14:19:49.147Z,7.00
2023-03-04T14:22:24.115Z,6.95
2023-03-04T14:24:57.488Z,6.75
2023-03-04T14:27:23.912Z,6.84
2023-03-04T14:29:58.128Z,6.93
2023-03-04T14:32:26.084Z,6.95
2023-03-04T14:34:58.145Z,7.01
2023-03-04T14:37:42.596Z,7.03
2023-03-04T14:40:20.534Z,7.02
2023-03-04T14:42:48.352Z,7.01
2023-03-04T14:45:16.717Z,6.84
2023-03-04T14:47:47.143Z,6.75
2023-03-04T14:50:16.526Z,6.73
2023-03-04T14:52:46.047Z,6.74
2023-03-04T14:55:15.348Z,6.71
2023-03-04T14:57:47.275Z,6.56
2023-03-04T15:00:15.830Z,6.67
2023-03-04T15:02:42.650Z,6.70
2023-03-04T15:05:17.650Z,6.74
2023-03-04T15:07:51.713Z,6.66
2023-03-04T15:10:22.810Z,6.72
2023-03-04T15:12:54.979Z,6.83
2023-03-04T15:15:32.702Z,6.84
2023-03-04T15:18:15.531Z,6.78
2023-03-04T15:20:42.042Z,6.75
2023-03-04T15:23:08.484Z,6.81
2023-03-04T15:25:35.465Z,6.81
2023-03-04T15:28:03.318Z,6.77
2023-03-04T15:30:33.643Z,6.67
2023-03-04T15:33:00.463Z,6.55
2023-03-04T15:35:30.425Z,6.44
2023-03-04T15:37:57.275Z,6.39
2023-03-04T15:40:32.661Z,6.42
2023-03-04T15:43:01.714Z,6.46
2023-03-04T15:45:29.713Z,6.46
2023-03-04T15:47:56.505Z,6.32
2023-03-04T15:50:28.795Z,6.37
2023-03-04T15:52:59.917Z,6.34
2023-03-04T15:55:26.296Z,6.25
2023-03-04T15:57:56.250Z,6.31
2023-03-04T16:00:23.057Z,6.27
2023-03-04T16:02:49.465Z,6.27
2023-03-04T16:05:16.234Z,6.16
2023-03-04T16:07:46.331Z,6.12
2023-03-04T16:10:28.196Z,6.04
2023-03-04T16:12:54.747Z,6.19
2023-03-04T16:15:24.671Z,6.00
2023-03-04T16:17:51.783Z,6.01
2023-03-04T16:20:21.362Z,5.91
2023-03-04T16:22:51.368Z,5.86
2023-03-04T16:25:18.674Z,5.80
2023-03-04T16:27:45.329Z,5.79
2023-03-04T16:30:20.750Z,5.76
2023-03-04T16:32:47.531Z,5.70
2023-03-04T16:35:15.175Z,5.73
2023-03-04T16:37:42.455Z,5.63
2023-03-04T16:40:13.548Z,5.64
2023-03-04T16:42:40.382Z,5.67
2023-03-04T16:45:14.844Z,5.63
2023-03-04T16:47:41.182Z,5.53
2023-03-04T16:50:07.575Z,5.50
2023-03-04T16:52:33.968Z,5.43
2023-03-04T16:55:00.302Z,5.43
2023-03-04T16:57:26.631Z,5.32
2023-03-04T16:59:53.034Z,5.40
2023-03-04T17:02:20.461Z,5.33
2023-03-04T17:04:48.742Z,5.26
2023-03-04T17:07:15.369Z,5.29
2023-03-04T17:09:42.168Z,5.27
2023-03-04T17:12:11.177Z,5.17
2023-03-04T17:14:38.847Z,5.16
2023-03-04T17:17:06.463Z,5.20
2023-03-04T17:19:33.329Z,5.04
2023-03-04T17:22:01.045Z,5.02
2023-03-04T17:24:28.483Z,5.05
2023-03-04T17:26:55.344Z,5.03
2023-03-04T17:29:22.214Z,4.91
2023-03-04T17:31:48.559Z,4.89
2023-03-04T17:34:14.880Z,4.99
2023-03-04T17:36:41.156Z,4.97
2023-03-04T17:39:07.901Z,4.94
2023-03-04T17:41:36.079Z,4.93
2023-03-04T17:44:02.794Z,4.85
2023-03-04T17:46:29.472Z,4.77
2023-03-04T17:48:58.108Z,4.84
2023-03-04T17:51:36.439Z,4.64
2023-03-04T17:54:03.377Z,4.82
2023-03-04T17:56:31.552Z,4.74
2023-03-04T17:59:00.271Z,4.75
2023-03-04T18:01:27.447Z,4.75
2023-03-04T18:03:54.370Z,4.64
2023-03-04T18:06:21.692Z,4.49
2023-03-04T18:08:48.926Z,4.57
2023-03-04T18:11:15.503Z,4.40
2023-03-04T18:13:43.574Z,4.33
2023-03-04T18:16:10.925Z,4.24
2023-03-04T18:18:37.482Z,4.16
2023-03-04T18:21:04.105Z,4.24
2023-03-04T18:23:30.842Z,4.17
2023-03-04T18:25:57.360Z,4.14
2023-03-04T18:28:24.097Z,4.24
2023-03-04T18:30:51.863Z,4.23
2023-03-04T18:33:18.597Z,4.08
2023-03-04T18:35:44.980Z,4.17
2023-03-04T18:38:11.478Z,4.24
2023-03-04T18:40:41.974Z,4.26
2023-03-04T18:43:08.790Z,4.30
2023-03-04T18:45:35.209Z,4.26
2023-03-04T18:48:01.673Z,4.30
2023-03-04T18:50:28.482Z,4.31
2023-03-04T18:52:54.795Z,4.26
2023-03-04T18:55:22.041Z,4.31
2023-03-04T18:57:52.057Z,4.29
2023-03-04T19:00:20.382Z,4.17
2023-03-04T19:02:51.951Z,4.16
2023-03-04T19:05:26.673Z,4.20
2023-03-04T19:07:53.747Z,4.17
2023-03-04T19:10:20.300Z,4.25
2023-03-04T19:12:46.665Z,4.18
2023-03-04T19:15:13.597Z,4.20
2023-03-04T19:17:40.672Z,4.17
2023-03-04T19:20:09.356Z,4.16
2023-03-04T19:22:36.364Z,4.16
2023-03-04T19:25:03.161Z,4.07
2023-03-04T19:27:30.432Z,4.14
2023-03-04T19:29:56.866Z,4.13
2023-03-04T19:32:23.289Z,4.13
2023-03-04T19:34:49.694Z,4.11
2023-03-04T19:37:16.127Z,4.12
2023-03-04T19:39:42.907Z,4.08
2023-03-04T19:42:10.549Z,4.06
2023-03-04T19:44:36.941Z,4.18
2023-03-04T19:47:03.438Z,4.19
2023-03-04T19:49:33.486Z,4.23
2023-03-04T19:52:00.286Z,4.24
2023-03-04T19:54:30.520Z,4.26
2023-03-04T19:56:58.342Z,4.18
2023-03-04T19:59:25.113Z,4.27
2023-03-04T20:01:51.511Z,4.18
2023-03-04T20:04:18.963Z,4.20
2023-03-04T20:06:47.491Z,4.23
2023-03-04T20:09:15.975Z,4.23
2023-03-04T20:11:57.353Z,4.15
2023-03-04T20:14:24.840Z,3.97
2023-03-04T20:16:51.204Z,3.89
2023-03-04T20:19:17.477Z,3.89
2023-03-04T20:21:43.865Z,3.85
2023-03-04T20:24:10.138Z,3.83
2023-03-04T20:26:36.450Z,3.77
2023-03-04T20:29:02.830Z,3.80
2023-03-04T20:31:30.105Z,3.88
2023-03-04T20:33:57.127Z,3.90
2023-03-04T20:36:26.481Z,3.85
2023-03-04T20:39:00.665Z,3.89
2023-03-04T20:41:28.676Z,3.80
2023-03-04T20:43:55.016Z,3.75
2023-03-04T20:46:39.505Z,3.82
2023-03-04T20:49:08.825Z,3.72
2023-03-04T20:51:35.523Z,3.73
2023-03-04T20:54:02.242Z,3.72
2023-03-04T20:56:28.813Z,3.65
2023-03-04T20:58:57.226Z,3.65
2023-03-04T21:01:24.138Z,3.63
2023-03-04T21:03:50.603Z,3.50
2023-03-04T21:06:17.049Z,3.56
2023-03-04T21:08:44.055Z,3.51
2023-03-04T21:11:12.854Z,3.33
2023-03-04T21:13:39.710Z,3.43
2023-03-04T21:16:09.984Z,3.31
2023-03-04T21:18:36.345Z,3.23
2023-03-04T21:21:09.477Z,3.15
2023-03-04T21:23:38.472Z,3.05
2023-03-04T21:26:05.650Z,3.03
2023-03-04T21:28:31.987Z,2.96
2023-03-04T21:30:58.515Z,2.81
2023-03-04T21:33:30.281Z,2.82
2023-03-04T21:35:56.692Z,2.79
2023-03-04T21:38:23.021Z,2.78
2023-03-04T21:40:49.378Z,2.68
2023-03-04T21:43:15.760Z,2.68
2023-03-04T21:45:42.021Z,2.77
2023-03-04T21:48:08.382Z,2.69
2023-03-04T21:50:34.726Z,2.69
2023-03-04T21:53:01.048Z,2.73
2023-03-04T21:55:27.429Z,2.66
2023-03-04T21:57:53.750Z,2.69
2023-03-04T22:00:20.498Z,2.64
2023-03-04T22:02:46.878Z,2.63
2023-03-04T22:05:13.204Z,2.66
2023-03-04T22:07:39.514Z,2.58
2023-03-04T22:10:06.337Z,2.64
2023-03-04T22:12:32.780Z,2.60
2023-03-04T22:14:59.089Z,2.67
2023-03-04T22:17:25.501Z,2.66
2023-03-04T22:19:51.776Z,2.68
2023-03-04T22:22:18.146Z,2.68
2023-03-04T22:24:44.429Z,2.68
2023-03-04T22:27:10.953Z,2.63
2023-03-04T22:29:37.293Z,2.66
2023-03-04T22:32:04.046Z,2.65
2023-03-04T22:34:30.509Z,2.74
2023-03-04T22:36:56.835Z,2.67
2023-03-04T22:39:23.344Z,2.72
2023-03-04T22:41:49.854Z,2.74
2023-03-04T22:44:16.126Z,2.76
2023-03-04T22:46:42.643Z,2.75
2023-03-04T22:49:11.728Z,2.68
2023-03-04T22:51:39.623Z,2.59
2023-03-04T22:54:05.974Z,2.64
2023-03-04T22:56:32.666Z,2.63
2023-03-04T22:58:59.095Z,2.64
2023-03-04T23:01:25.404Z,2.59
2023-03-04T23:03:52.771Z,2.56
2023-03-04T23:06:22.155Z,2.52
2023-03-04T23:08:50.287Z,2.45
2023-03-04T23:11:19.974Z,2.45
2023-03-04T23:13:47.497Z,2.34
2023-03-04T23:16:14.572Z,2.33
2023-03-04T23:18:42.828Z,2.24
2023-03-04T23:21:27.099Z,2.20
2023-03-04T23:23:53.749Z,2.13
2023-03-04T23:26:30.622Z,2.08
2023-03-04T23:28:57.165Z,2.16
2023-03-04T23:31:24.363Z,2.17
2023-03-04T23:33:50.865Z,2.14
2023-03-04T23:36:17.852Z,2.25
2023-03-04T23:38:46.340Z,2.26
2023-03-04T23:41:24.862Z,2.28
2023-03-04T23:43:52.505Z,2.35
2023-03-04T23:46:19.490Z,2.32
2023-03-04T23:48:45.933Z,2.38
2023-03-04T23:51:12.706Z,2.49
2023-03-04T23:53:39.158Z,2.49
2023-03-04T23:56:10.039Z,2.58
2023-03-04T23:58:37.070Z,2.60
